createdAt,value
2022-08-20T00:00:23.509Z,97858.25
2022-08-20T00:03:41.669Z,97858.48
2022-08-20T00:06:48.815Z,97850.31
2022-08-20T00:09:51.801Z,97829.66
2022-08-20T00:12:55.690Z,97816.98
2022-08-20T00:15:59.608Z,97817.95
2022-08-20T00:19:07.313Z,97826.25
2022-08-20T00:22:10.219Z,97839.77
2022-08-20T00:25:14.008Z,97856.64
2022-08-20T00:28:17.446Z,97863.05
2022-08-20T00:31:22.950Z,97877.83
2022-08-20T00:34:25.964Z,97889.89
2022-08-20T00:37:28.901Z,97902.59
2022-08-20T00:40:45.701Z,97910.48
2022-08-20T00:44:05.001Z,97921.74
2022-08-20T00:47:09.300Z,97928.83
2022-08-20T00:50:15.531Z,97924.88
2022-08-20T00:53:23.590Z,97922.09
2022-08-20T00:56:26.746Z,97920.45
2022-08-20T00:59:31.490Z,97910.17
2022-08-20T01:02:35.270Z,97897.86
2022-08-20T01:05:40.151Z,97884.89
2022-08-20T01:08:43.208Z,97880.33
2022-08-20T01:11:46.485Z,97877.96
2022-08-20T01:14:49.702Z,97874.95
2022-08-20T01:17:57.962Z,97865.56
2022-08-20T01:21:06.025Z,97866.83
2022-08-20T01:24:16.670Z,97859.88
2022-08-20T01:27:19.883Z,97850.50
2022-08-20T01:30:26.351Z,97846.66
2022-08-20T01:33:29.460Z,97839.98
2022-08-20T01:36:43.034Z,97835.25
2022-08-20T01:39:48.539Z,97840.75
2022-08-20T01:42:58.980Z,97851.75
2022-08-20T01:46:04.651Z,97857.39
2022-08-20T01:49:15.667Z,97857.94
2022-08-20T01:52:36.636Z,97864.04
2022-08-20T01:55:39.653Z,97880.00
2022-08-20T01:58:49.745Z,97886.98
2022-08-20T02:02:00.234Z,97877.04
2022-08-20T02:05:04.658Z,97859.69
2022-08-20T02:08:07.664Z,97846.86
2022-08-20T02:11:12.958Z,97836.19
2022-08-20T02:14:16.792Z,97838.02
2022-08-20T02:17:22.928Z,97835.80
2022-08-20T02:20:30.360Z,97834.77
2022-08-20T02:23:35.819Z,97834.42
2022-08-20T02:26:39.745Z,97831.05
2022-08-20T02:29:42.746Z,97832.95
2022-08-20T02:32:45.766Z,97836.46
2022-08-20T02:35:49.906Z,97830.17
2022-08-20T02:38:52.963Z,97822.48
2022-08-20T02:41:56.072Z,97818.15
2022-08-20T02:44:59.016Z,97809.31
2022-08-20T02:48:01.948Z,97806.20
2022-08-20T02:51:06.929Z,97810.61
2022-08-20T02:54:10.262Z,97807.46
2022-08-20T02:57:15.117Z,97812.05
2022-08-20T03:00:20.929Z,97820.27
2022-08-20T03:03:24.545Z,97820.71
2022-08-20T03:06:28.087Z,97819.09
2022-08-20T03:09:31.019Z,97814.42
2022-08-20T03:12:34.339Z,97801.76
2022-08-20T03:15:37.500Z,97794.31
2022-08-20T03:18:44.432Z,97788.29
2022-08-20T03:21:47.741Z,97787.06
2022-08-20T03:24:50.661Z,97798.94
2022-08-20T03:27:57.500Z,97800.20
2022-08-20T03:31:01.413Z,97802.64
2022-08-20T03:34:04.518Z,97800.63
2022-08-20T03:37:07.510Z,97794.17
2022-08-20T03:40:15.583Z,97799.77
2022-08-20T03:43:18.838Z,97805.35
2022-08-20T03:46:23.076Z,97806.66
2022-08-20T03:49:26.824Z,97803.27
2022-08-20T03:52:29.842Z,97800.71
2022-08-20T03:55:32.975Z,97792.41
2022-08-20T03:58:36.625Z,97794.48
2022-08-20T04:01:46.364Z,97784.77
2022-08-20T04:04:49.663Z,97781.25
2022-08-20T04:07:52.751Z,97772.30
2022-08-20T04:10:57.819Z,97770.64
2022-08-20T04:14:00.672Z,97777.80
2022-08-20T04:17:10.676Z,97779.84
2022-08-20T04:20:19.229Z,97765.04
2022-08-20T04:23:22.568Z,97760.62
2022-08-20T04:26:25.944Z,97755.39
2022-08-20T04:29:32.490Z,97758.98
2022-08-20T04:32:37.005Z,97755.30
2022-08-20T04:35:41.259Z,97765.96
2022-08-20T04:38:47.807Z,97777.80
2022-08-20T04:41:53.155Z,97798.25
2022-08-20T04:44:56.013Z,97807.09
2022-08-20T04:48:05.741Z,97803.41
2022-08-20T04:51:09.732Z,97803.45
2022-08-20T04:54:14.348Z,97786.61
2022-08-20T04:57:17.295Z,97775.66
2022-08-20T05:00:20.292Z,97771.73
2022-08-20T05:03:24.880Z,97778.23
2022-08-20T05:06:31.146Z,97775.89
2022-08-20T05:09:35.078Z,97779.77
2022-08-20T05:12:56.829Z,97783.51
2022-08-20T05:16:02.066Z,97784.15
2022-08-20T05:19:07.018Z,97780.40
2022-08-20T05:22:09.958Z,97780.63
2022-08-20T05:25:13.038Z,97777.48
2022-08-20T05:28:23.168Z,97772.92
2022-08-20T05:31:31.375Z,97778.61
2022-08-20T05:34:37.070Z,97779.33
2022-08-20T05:37:43.761Z,97773.55
2022-08-20T05:40:48.022Z,97765.97
2022-08-20T05:43:51.537Z,97768.08
2022-08-20T05:46:54.690Z,97777.09
2022-08-20T05:49:57.953Z,97778.99
2022-08-20T05:53:02.013Z,97779.91
2022-08-20T05:56:05.114Z,97781.38
2022-08-20T05:59:09.654Z,97790.19
2022-08-20T06:02:30.985Z,97793.86
2022-08-20T06:05:34.715Z,97798.27
2022-08-20T06:08:37.915Z,97788.89
2022-08-20T06:11:40.802Z,97779.29
2022-08-20T06:14:47.373Z,97781.36
2022-08-20T06:17:55.105Z,97789.95
2022-08-20T06:21:01.515Z,97787.92
2022-08-20T06:24:04.907Z,97793.48
2022-08-20T06:27:07.941Z,97794.92
2022-08-20T06:30:13.717Z,97795.86
2022-08-20T06:33:16.692Z,97793.38
2022-08-20T06:36:20.082Z,97798.58
2022-08-20T06:39:24.552Z,97803.02
2022-08-20T06:42:27.501Z,97804.72
2022-08-20T06:45:32.923Z,97795.83
2022-08-20T06:48:36.053Z,97800.77
2022-08-20T06:51:41.337Z,97805.08
2022-08-20T06:54:45.912Z,97811.42
2022-08-20T06:57:59.956Z,97813.27
2022-08-20T07:01:09.488Z,97816.05
2022-08-20T07:04:13.748Z,97821.86
2022-08-20T07:07:20.622Z,97823.33
2022-08-20T07:10:25.278Z,97821.44
2022-08-20T07:13:29.308Z,97820.30
2022-08-20T07:16:32.392Z,97827.47
2022-08-20T07:19:38.443Z,97822.48
2022-08-20T07:22:43.589Z,97821.12
2022-08-20T07:25:46.595Z,97824.59
2022-08-20T07:28:49.574Z,97818.48
2022-08-20T07:32:10.854Z,97820.52
2022-08-20T07:35:18.109Z,97825.00
2022-08-20T07:38:25.326Z,97830.45
2022-08-20T07:41:28.551Z,97830.45
2022-08-20T07:44:31.497Z,97839.88
2022-08-20T07:47:35.895Z,97834.14
2022-08-20T07:50:43.011Z,97832.92
2022-08-20T07:53:47.732Z,97832.45
2022-08-20T07:56:50.655Z,97830.26
2022-08-20T07:59:53.584Z,97835.02
2022-08-20T08:02:56.566Z,97833.99
2022-08-20T08:06:00.442Z,97835.85
2022-08-20T08:09:10.071Z,97838.33
2022-08-20T08:12:15.063Z,97829.95
2022-08-20T08:15:23.994Z,97829.88
2022-08-20T08:18:31.989Z,97827.14
2022-08-20T08:21:35.042Z,97819.88
2022-08-20T08:24:39.480Z,97810.95
2022-08-20T08:27:43.112Z,97807.81
2022-08-20T08:30:48.212Z,97808.89
2022-08-20T08:33:51.466Z,97804.86
2022-08-20T08:36:54.384Z,97805.02
2022-08-20T08:39:59.470Z,97805.67
2022-08-20T08:43:04.395Z,97803.88
2022-08-20T08:46:11.342Z,97805.88
2022-08-20T08:49:18.402Z,97814.15
2022-08-20T08:52:26.273Z,97818.04
2022-08-20T08:55:31.210Z,97820.04
2022-08-20T08:58:37.154Z,97821.41
2022-08-20T09:01:54.324Z,97827.81
2022-08-20T09:05:02.267Z,97837.09
2022-08-20T09:08:14.966Z,97843.23
2022-08-20T09:11:22.517Z,97843.55
2022-08-20T09:14:25.548Z,97841.90
2022-08-20T09:17:28.565Z,97845.75
2022-08-20T09:20:31.546Z,97845.63
2022-08-20T09:23:34.670Z,97841.87
2022-08-20T09:26:39.283Z,97836.77
2022-08-20T09:29:42.682Z,97835.56
2022-08-20T09:32:46.631Z,97831.75
2022-08-20T09:35:49.655Z,97829.95
2022-08-20T09:38:52.574Z,97828.35
2022-08-20T09:41:55.442Z,97830.86
2022-08-20T09:45:06.326Z,97827.89
2022-08-20T09:48:14.072Z,97825.46
2022-08-20T09:51:17.484Z,97828.21
2022-08-20T09:54:23.025Z,97830.91
2022-08-20T09:57:26.606Z,97834.42
2022-08-20T10:00:29.790Z,97834.62
2022-08-20T10:03:32.751Z,97833.23
2022-08-20T10:06:40.769Z,97838.84
2022-08-20T10:09:43.917Z,97843.68
2022-08-20T10:12:48.129Z,97837.58
2022-08-20T10:16:13.441Z,97835.32
2022-08-20T10:19:16.583Z,97837.06
2022-08-20T10:22:19.508Z,97831.25
2022-08-20T10:25:23.107Z,97829.80
2022-08-20T10:28:26.026Z,97827.77
2022-08-20T10:31:28.992Z,97827.36
2022-08-20T10:34:32.083Z,97822.52
2022-08-20T10:37:36.478Z,97807.56
2022-08-20T10:40:39.592Z,97806.77
2022-08-20T10:43:42.614Z,97813.11
2022-08-20T10:46:45.866Z,97812.80
2022-08-20T10:49:53.850Z,97813.42
2022-08-20T10:52:56.865Z,97818.14
2022-08-20T10:56:00.016Z,97819.98
2022-08-20T10:59:03.540Z,97824.35
2022-08-20T11:02:06.575Z,97826.11
2022-08-20T11:05:09.955Z,97824.42
2022-08-20T11:08:13.296Z,97820.58
2022-08-20T11:11:16.208Z,97817.09
2022-08-20T11:14:19.184Z,97815.34
2022-08-20T11:17:28.854Z,97812.42
2022-08-20T11:20:32.220Z,97810.27
2022-08-20T11:23:35.406Z,97809.50
2022-08-20T11:26:38.424Z,97809.55
2022-08-20T11:29:41.295Z,97807.67
2022-08-20T11:32:46.543Z,97803.83
2022-08-20T11:35:50.275Z,97801.16
2022-08-20T11:38:53.714Z,97794.85
2022-08-20T11:41:56.782Z,97797.11
2022-08-20T11:44:59.722Z,97799.25
2022-08-20T11:48:02.788Z,97799.30
2022-08-20T11:51:05.931Z,97797.76
2022-08-20T11:54:08.892Z,97801.27
2022-08-20T11:57:23.382Z,97800.16
2022-08-20T12:00:32.199Z,97802.58
2022-08-20T12:03:37.327Z,97800.64
2022-08-20T12:06:40.293Z,97793.98
2022-08-20T12:09:51.170Z,97794.75
2022-08-20T12:12:55.335Z,97789.98
2022-08-20T12:15:58.922Z,97789.22
2022-08-20T12:19:01.878Z,97787.77
2022-08-20T12:22:21.341Z,97783.12
2022-08-20T12:25:27.980Z,97783.48
2022-08-20T12:28:31.428Z,97780.67
2022-08-20T12:31:34.457Z,97785.85
2022-08-20T12:34:39.076Z,97784.78
2022-08-20T12:37:43.185Z,97779.27
2022-08-20T12:40:46.638Z,97768.60
2022-08-20T12:43:49.519Z,97770.01
2022-08-20T12:46:52.399Z,97770.80
2022-08-20T12:50:05.554Z,97779.61
2022-08-20T12:53:09.316Z,97782.16
2022-08-20T12:56:12.158Z,97783.90
2022-08-20T12:59:15.377Z,97793.54
2022-08-20T13:02:18.854Z,97809.35
2022-08-20T13:05:23.288Z,97816.60
2022-08-20T13:08:26.266Z,97814.38
2022-08-20T13:11:29.719Z,97811.02
2022-08-20T13:14:32.676Z,97805.94
2022-08-20T13:17:38.952Z,97802.17
2022-08-20T13:20:42.603Z,97817.30
2022-08-20T13:23:45.598Z,97831.86
2022-08-20T13:26:49.979Z,97836.40
2022-08-20T13:29:58.544Z,97836.91
2022-08-20T13:33:02.259Z,97849.00
2022-08-20T13:36:05.857Z,97859.51
2022-08-20T13:39:08.922Z,97859.12
2022-08-20T13:42:13.457Z,97866.62
2022-08-20T13:45:16.425Z,97867.67
2022-08-20T13:48:19.367Z,97858.79
2022-08-20T13:51:22.295Z,97855.77
2022-08-20T13:54:30.246Z,97849.42
2022-08-20T13:57:34.237Z,97854.16
2022-08-20T14:00:37.261Z,97851.70
2022-08-20T14:03:40.289Z,97855.10
2022-08-20T14:06:45.745Z,97852.34
2022-08-20T14:09:55.425Z,97851.09
2022-08-20T14:12:59.447Z,97859.38
2022-08-20T14:16:02.355Z,97880.27
2022-08-20T14:19:05.966Z,97890.64
2022-08-20T14:22:08.990Z,97889.40
2022-08-20T14:25:14.266Z,97896.00
2022-08-20T14:28:20.435Z,97895.21
2022-08-20T14:31:23.300Z,97909.26
2022-08-20T14:34:26.246Z,97920.77
2022-08-20T14:37:34.836Z,97919.19
2022-08-20T14:40:37.835Z,97918.77
2022-08-20T14:43:40.788Z,97910.80
2022-08-20T14:46:43.726Z,97898.09
2022-08-20T14:49:48.179Z,97881.61
2022-08-20T14:52:51.624Z,97872.56
2022-08-20T14:55:54.555Z,97862.57
2022-08-20T14:58:57.395Z,97849.55
2022-08-20T15:02:00.801Z,97851.05
2022-08-20T15:05:06.951Z,97844.84
2022-08-20T15:08:11.037Z,97836.64
2022-08-20T15:11:14.435Z,97823.59
2022-08-20T15:14:18.535Z,97801.44
2022-08-20T15:17:27.082Z,97796.91
2022-08-20T15:20:32.421Z,97791.86
2022-08-20T15:23:35.334Z,97789.58
2022-08-20T15:26:38.377Z,97783.25
2022-08-20T15:29:41.972Z,97779.97
2022-08-20T15:32:45.226Z,97780.45
2022-08-20T15:35:48.147Z,97771.46
2022-08-20T15:38:51.214Z,97762.42
2022-08-20T15:41:54.096Z,97753.05
2022-08-20T15:44:57.583Z,97741.97
2022-08-20T15:48:19.281Z,97731.83
2022-08-20T15:51:33.197Z,97730.89
2022-08-20T15:54:36.681Z,97717.25
2022-08-20T15:57:53.085Z,97718.04
2022-08-20T16:01:24.536Z,97720.23
2022-08-20T16:04:56.968Z,97754.00
2022-08-20T16:08:18.112Z,97767.69
2022-08-20T16:11:33.315Z,97775.43
2022-08-20T16:14:45.258Z,97762.80
2022-08-20T16:17:58.268Z,97761.45
2022-08-20T16:21:06.013Z,97770.28
2022-08-20T16:24:12.866Z,97780.45
2022-08-20T16:27:33.080Z,97799.23
2022-08-20T16:30:39.079Z,97804.10
2022-08-20T16:33:51.102Z,97798.23
2022-08-20T16:37:04.279Z,97794.45
2022-08-20T16:40:30.052Z,97793.00
2022-08-20T16:43:40.136Z,97788.69
2022-08-20T16:46:52.118Z,97788.36
2022-08-20T16:50:20.477Z,97764.57
2022-08-20T16:53:25.680Z,97749.13
2022-08-20T16:56:37.934Z,97758.91
2022-08-20T17:00:05.615Z,97760.73
2022-08-20T17:03:31.734Z,97773.96
2022-08-20T17:06:47.084Z,97783.74
2022-08-20T17:09:50.345Z,97787.80
2022-08-20T17:13:00.056Z,97789.38
2022-08-20T17:16:17.151Z,97789.86
2022-08-20T17:19:30.615Z,97799.93
2022-08-20T17:22:42.661Z,97806.05
2022-08-20T17:25:56.463Z,97808.00
2022-08-20T17:29:03.040Z,97822.01
2022-08-20T17:32:16.762Z,97822.02
2022-08-20T17:35:28.993Z,97822.71
2022-08-20T17:38:41.341Z,97830.02
2022-08-20T17:41:49.122Z,97835.52
2022-08-20T17:45:04.411Z,97833.60
2022-08-20T17:48:13.733Z,97836.38
2022-08-20T17:51:19.852Z,97841.06
2022-08-20T17:54:41.521Z,97848.70
2022-08-20T17:57:48.065Z,97852.29
2022-08-20T18:00:51.117Z,97852.05
2022-08-20T18:03:54.627Z,97848.11
2022-08-20T18:07:17.137Z,97851.27
2022-08-20T18:10:26.861Z,97854.06
2022-08-20T18:13:44.855Z,97853.82
2022-08-20T18:17:30.087Z,97854.42
2022-08-20T18:20:54.478Z,97854.24
2022-08-20T18:24:14.942Z,97854.84
2022-08-20T18:27:22.508Z,97858.67
2022-08-20T18:30:26.864Z,97863.56
2022-08-20T18:33:40.882Z,97864.67
2022-08-20T18:37:00.545Z,97864.13
2022-08-20T18:40:14.496Z,97861.91
2022-08-20T18:43:27.914Z,97859.09
2022-08-20T18:46:31.465Z,97863.82
2022-08-20T18:49:37.806Z,97860.09
2022-08-20T18:52:46.830Z,97854.14
2022-08-20T18:56:11.094Z,97854.05
2022-08-20T18:59:18.981Z,97855.05
2022-08-20T19:02:32.475Z,97856.88
2022-08-20T19:06:06.044Z,97861.61
2022-08-20T19:09:38.447Z,97870.01
2022-08-20T19:12:41.242Z,97868.66
2022-08-20T19:15:55.265Z,97861.27
2022-08-20T19:18:58.558Z,97861.49
2022-08-20T19:22:02.662Z,97869.74
2022-08-20T19:25:06.639Z,97862.77
2022-08-20T19:28:40.018Z,97865.75
2022-08-20T19:31:43.459Z,97869.55
2022-08-20T19:35:17.113Z,97868.41
2022-08-20T19:38:21.502Z,97863.60
2022-08-20T19:41:31.277Z,97860.67
2022-08-20T19:44:42.212Z,97857.81
2022-08-20T19:47:57.008Z,97851.95
2022-08-20T19:51:20.477Z,97852.84
2022-08-20T19:54:27.734Z,97851.79
2022-08-20T19:57:30.850Z,97850.08
2022-08-20T20:00:47.748Z,97848.86
2022-08-20T20:03:57.840Z,97840.52
2022-08-20T20:07:00.893Z,97831.84
2022-08-20T20:10:07.605Z,97820.20
2022-08-20T20:13:18.164Z,97809.02
2022-08-20T20:16:21.858Z,97805.94
2022-08-20T20:19:27.562Z,97803.86
2022-08-20T20:22:53.819Z,97803.58
2022-08-20T20:26:01.791Z,97801.48
2022-08-20T20:29:13.851Z,97806.77
2022-08-20T20:32:21.836Z,97808.00
2022-08-20T20:35:32.416Z,97808.98
2022-08-20T20:38:39.082Z,97802.36
2022-08-20T20:41:52.419Z,97800.45
2022-08-20T20:44:58.555Z,97800.50
2022-08-20T20:48:20.486Z,97801.85
2022-08-20T20:51:23.554Z,97806.84
2022-08-20T20:54:34.668Z,97809.86
2022-08-20T20:57:40.622Z,97815.06
2022-08-20T21:00:44.118Z,97813.73
2022-08-20T21:03:47.313Z,97812.85
2022-08-20T21:06:52.462Z,97815.43
2022-08-20T21:09:56.540Z,97819.42
2022-08-20T21:12:59.975Z,97825.86
2022-08-20T21:16:03.248Z,97825.53
2022-08-20T21:19:07.418Z,97821.44
2022-08-20T21:22:10.348Z,97817.88
2022-08-20T21:25:13.499Z,97820.46
2022-08-20T21:28:17.112Z,97830.16
2022-08-20T21:31:20.009Z,97836.77
2022-08-20T21:34:22.886Z,97833.27
2022-08-20T21:37:25.828Z,97818.23
2022-08-20T21:40:28.744Z,97808.86
2022-08-20T21:43:32.754Z,97810.96
2022-08-20T21:46:35.995Z,97805.91
2022-08-20T21:49:38.941Z,97805.34
2022-08-20T21:52:42.288Z,97804.58
2022-08-20T21:55:57.103Z,97800.45
2022-08-20T21:59:01.183Z,97797.30
2022-08-20T22:02:04.573Z,97799.80
2022-08-20T22:05:07.859Z,97798.41
2022-08-20T22:08:11.117Z,97796.60
2022-08-20T22:11:14.488Z,97791.24
2022-08-20T22:14:18.409Z,97790.43
2022-08-20T22:17:21.709Z,97790.09
2022-08-20T22:20:25.027Z,97780.88
2022-08-20T22:23:28.530Z,97762.56
2022-08-20T22:26:34.847Z,97752.70
2022-08-20T22:29:38.247Z,97758.36
2022-08-20T22:32:51.981Z,97750.29
2022-08-20T22:35:57.600Z,97744.96
2022-08-20T22:39:00.537Z,97746.19
2022-08-20T22:42:03.804Z,97756.17
2022-08-20T22:45:12.321Z,97765.54
2022-08-20T22:48:19.613Z,97771.08
2022-08-20T22:51:34.927Z,97775.65
2022-08-20T22:54:38.517Z,97785.63
2022-08-20T22:57:47.829Z,97781.43
2022-08-20T23:00:51.378Z,97773.03
2022-08-20T23:04:02.969Z,97772.81
2022-08-20T23:07:10.015Z,97767.77
2022-08-20T23:10:15.920Z,97764.17
2022-08-20T23:13:18.847Z,97756.61
2022-08-20T23:16:21.736Z,97757.66
2022-08-20T23:19:24.631Z,97753.72
2022-08-20T23:22:27.562Z,97753.64
2022-08-20T23:25:30.794Z,97755.52
2022-08-20T23:28:33.834Z,97757.17
2022-08-20T23:31:36.697Z,97753.98
2022-08-20T23:34:40.139Z,97751.41
2022-08-20T23:37:54.961Z,97745.38
2022-08-20T23:40:57.838Z,97744.61
2022-08-20T23:44:00.914Z,97738.98
2022-08-20T23:47:04.320Z,97736.73
2022-08-20T23:50:11.362Z,97740.08
2022-08-20T23:53:14.343Z,97749.33
2022-08-20T23:56:17.471Z,97756.31
2022-08-20T23:59:20.409Z,97757.39
